Time;durP1;ratioP1;P1;durP2;ratioP2;P2;SDS_P1;SDS_P2;PMS_P1;PMS_P2;Temp;Humidity;BMP_temperature;BMP_pressure;BME280_temperature;BME280_humidity;BME280_pressure;Samples;Min_cycle;Max_cycle;Signal;HPM_P1;HPM_P2
2021/09/27 00:00:26;;;;;;;21.97;19.97;;;;;;;13.09;86.61;99425.84;5017663;28;20247;-89
2021/09/27 00:02:53;;;;;;;22.13;20.13;;;;;;;13.11;87.06;99435.31;5017951;28;20256;-88
2021/09/27 00:05:21;;;;;;;22.33;20.17;;;;;;;13.03;87.04;99416.03;5001548;28;20235;-90
2021/09/27 00:07:48;;;;;;;21.20;19.30;;;;;;;13.05;87.16;99432.75;5018048;28;20229;-90
2021/09/27 00:10:27;;;;;;;21.70;19.90;;;;;;;13.01;87.41;99419.00;5018798;28;20236;-87
2021/09/27 00:12:55;;;;;;;21.87;19.97;;;;;;;12.91;87.39;99408.03;5019097;28;20239;-89
2021/09/27 00:15:31;;;;;;;22.60;20.57;;;;;;;12.95;87.96;99422.63;5018448;28;20243;-85
2021/09/27 00:17:58;;;;;;;23.57;21.27;;;;;;;12.95;88.13;99417.25;5003313;28;20254;-88
2021/09/27 00:20:24;;;;;;;22.73;20.43;;;;;;;12.99;87.26;99409.50;5018817;28;20228;-82
2021/09/27 00:22:52;;;;;;;23.00;20.90;;;;;;;12.95;87.77;99406.50;5019742;28;20590;-81
2021/09/27 00:25:21;;;;;;;21.90;19.73;;;;;;;12.90;87.67;99411.78;5003511;28;20233;-86
2021/09/27 00:27:47;;;;;;;21.90;20.00;;;;;;;12.78;87.62;99401.03;5003563;28;20243;-88
2021/09/27 00:30:22;;;;;;;21.90;19.90;;;;;;;12.79;87.60;99407.25;5005257;28;20243;-86
2021/09/27 00:32:52;;;;;;;21.40;19.50;;;;;;;12.79;87.98;99408.06;5028895;28;20653;-86
2021/09/27 00:35:43;;;;;;;21.77;19.87;;;;;;;12.76;87.91;99403.19;5011901;28;20313;-81
2021/09/27 00:38:11;;;;;;;21.40;19.47;;;;;;;12.68;87.88;99398.19;5029826;28;20250;-84
2021/09/27 00:40:51;;;;;;;19.83;18.23;;;;;;;12.72;88.33;99418.16;5029702;28;20236;-79
2021/09/27 00:43:31;;;;;;;22.20;20.10;;;;;;;12.69;87.83;99417.81;5030950;28;20236;-82
2021/09/27 00:46:05;;;;;;;21.23;19.23;;;;;;;12.64;88.04;99418.53;5013811;28;20284;-80
2021/09/27 00:48:36;;;;;;;21.33;19.50;;;;;;;12.61;88.28;99410.94;5018357;28;20223;-81
2021/09/27 00:51:27;;;;;;;21.00;19.10;;;;;;;12.63;87.93;99416.06;5032825;28;20247;-79
2021/09/27 00:54:58;;;;;;;20.47;18.57;;;;;;;12.59;88.03;99406.84;5014507;28;20236;-80
2021/09/27 00:57:35;;;;;;;20.70;18.80;;;;;;;12.59;88.45;99407.69;5016857;28;20186;-79
2021/09/27 01:00:40;;;;;;;21.23;18.90;;;;;;;12.52;87.94;99390.84;5000491;28;20238;-81
2021/09/27 01:03:16;;;;;;;21.17;19.27;;;;;;;12.58;88.13;99405.22;5015448;28;20237;-78
2021/09/27 01:06:28;;;;;;;19.93;18.13;;;;;;;12.53;88.08;99397.88;5046789;23;20225;-79
2021/09/27 01:10:02;;;;;;;20.33;18.53;;;;;;;12.48;88.13;99389.69;5173367;22;20257;-79
2021/09/27 01:13:26;;;;;;;20.03;18.13;;;;;;;12.46;88.42;99391.78;5035666;28;20249;-79
2021/09/27 01:20:29;;;;;;;20.30;18.57;;;;;;;12.39;88.50;99388.44;5141602;23;20216;-79
2021/09/27 01:23:49;;;;;;;19.60;17.90;;;;;;;12.41;88.83;99390.91;5058668;22;20262;-79
2021/09/27 01:26:50;;;;;;;21.37;19.37;;;;;;;12.39;88.61;99387.63;5050979;23;20252;-79
2021/09/27 01:30:31;;;;;;;21.53;19.33;;;;;;;12.41;88.84;99397.06;5053306;22;20282;-79
2021/09/27 01:33:54;;;;;;;21.70;19.53;;;;;;;12.47;88.95;99398.00;5025939;23;20234;-79
2021/09/27 01:36:58;;;;;;;21.03;18.93;;;;;;;12.52;89.21;99398.09;5041193;23;20233;-79
2021/09/27 01:40:26;;;;;;;21.53;19.70;;;;;;;12.60;89.27;99405.78;5043182;28;20282;-80
2021/09/27 01:43:37;;;;;;;21.40;19.50;;;;;;;12.66;89.06;99412.91;5053337;23;20293;-79
2021/09/27 01:46:58;;;;;;;21.43;19.43;;;;;;;12.75;89.11;99419.53;5062207;23;20234;-79
2021/09/27 01:50:16;;;;;;;22.00;19.97;;;;;;;12.82;89.05;99425.59;5061861;23;20232;-79
2021/09/27 01:53:42;;;;;;;23.10;20.80;;;;;;;12.88;88.97;99424.63;5084552;23;20261;-79
2021/09/27 01:56:47;;;;;;;21.57;19.63;;;;;;;12.96;88.38;99418.06;5039051;28;20223;-79
2021/09/27 02:00:23;;;;;;;21.33;19.37;;;;;;;12.97;88.60;99422.41;5044386;28;20224;-81
2021/09/27 02:03:50;;;;;;;21.50;19.50;;;;;;;13.03;88.61;99427.63;5061068;23;20236;-81
2021/09/27 02:06:55;;;;;;;22.13;20.03;;;;;;;13.00;88.54;99419.22;5053413;28;20192;-80
2021/09/27 02:09:51;;;;;;;21.77;19.77;;;;;;;13.08;88.59;99430.41;5051947;28;20243;-82
2021/09/27 02:13:04;;;;;;;20.93;19.03;;;;;;;13.11;88.40;99431.84;5049759;28;20287;-82
2021/09/27 02:15:36;;;;;;;21.60;19.57;;;;;;;13.23;88.50;99438.78;5043379;28;20227;-88
2021/09/27 02:18:24;;;;;;;22.53;20.40;;;;;;;13.22;88.48;99436.34;5024256;28;20317;-85
2021/09/27 02:21:06;;;;;;;21.73;19.80;;;;;;;13.37;88.61;99451.94;5036597;28;20236;-87
2021/09/27 02:23:44;;;;;;;20.53;18.73;;;;;;;13.35;88.21;99444.09;5004207;28;20231;-86
2021/09/27 02:26:10;;;;;;;21.27;19.43;;;;;;;13.37;88.11;99452.75;5035042;28;20290;-90
2021/09/27 02:28:37;;;;;;;21.57;19.70;;;;;;;13.41;88.10;99453.09;5035540;28;20563;-90
2021/09/27 02:31:11;;;;;;;21.47;19.43;;;;;;;13.45;88.42;99448.84;5034950;28;20238;-88
2021/09/27 02:34:07;;;;;;;20.50;18.73;;;;;;;13.54;88.01;99448.22;5018214;28;20714;-89
2021/09/27 02:36:46;;;;;;;20.07;18.37;;;;;;;13.48;87.91;99441.13;5035618;28;20289;-89
2021/09/27 02:39:48;;;;;;;20.97;19.07;;;;;;;13.59;87.79;99451.00;5018816;28;20280;-89
2021/09/27 02:42:22;;;;;;;20.73;18.73;;;;;;;13.60;88.17;99446.44;5034996;28;20235;-90
2021/09/27 02:44:49;;;;;;;20.33;18.63;;;;;;;13.60;87.36;99444.56;5003007;28;20630;-88
2021/09/27 02:47:23;;;;;;;21.23;19.33;;;;;;;13.65;87.69;99443.81;5018672;28;20253;-89
2021/09/27 02:49:55;;;;;;;21.17;19.37;;;;;;;13.65;87.99;99441.13;5001401;28;20240;-90
2021/09/27 02:52:23;;;;;;;21.17;19.27;;;;;;;13.67;87.82;99433.63;5034742;28;20240;-90
2021/09/27 02:54:57;;;;;;;20.73;18.83;;;;;;;13.73;87.77;99440.72;5018818;28;20224;-91
2021/09/27 02:58:01;;;;;;;21.27;19.40;;;;;;;13.84;87.52;99444.41;5002542;28;20269;-90
2021/09/27 03:00:54;;;;;;;21.00;19.20;;;;;;;13.82;87.17;99435.75;5035694;28;20232;-92
2021/09/27 03:03:33;;;;;;;21.00;19.10;;;;;;;13.92;87.64;99449.38;5039060;28;20633;-90
2021/09/27 03:06:03;;;;;;;21.13;19.23;;;;;;;13.96;87.51;99453.19;5039214;28;20224;-91
2021/09/27 03:08:59;;;;;;;21.40;19.37;;;;;;;13.95;86.49;99449.69;5038769;28;20664;-90
2021/09/27 03:11:45;;;;;;;21.77;19.77;;;;;;;14.06;86.85;99448.78;5022150;28;20232;-88
2021/09/27 03:14:18;;;;;;;21.27;19.33;;;;;;;14.07;86.70;99449.63;5022003;28;20227;-89
2021/09/27 03:16:44;;;;;;;20.73;18.83;;;;;;;14.07;86.84;99445.03;5022661;28;20283;-89
2021/09/27 03:19:24;;;;;;;22.43;20.43;;;;;;;14.00;86.82;99433.59;5022384;28;20248;-91
2021/09/27 03:22:13;;;;;;;21.90;19.80;;;;;;;14.11;87.00;99439.97;5021754;28;20237;-89
2021/09/27 03:25:02;;;;;;;22.70;20.57;;;;;;;14.07;86.91;99447.75;5039249;28;20727;-92
2021/09/27 03:27:31;;;;;;;22.33;20.07;;;;;;;14.13;87.33;99442.44;5022695;28;20645;-89
2021/09/27 03:30:26;;;;;;;22.20;20.00;;;;;;;14.16;87.61;99444.63;5022102;28;20222;-90
2021/09/27 03:33:10;;;;;;;22.23;20.23;;;;;;;14.13;87.36;99440.56;5039191;28;20319;-91
2021/09/27 03:35:55;;;;;;;22.80;20.60;;;;;;;14.22;87.41;99440.94;5021949;28;20228;-88
2021/09/27 03:38:54;;;;;;;21.40;19.40;;;;;;;14.22;87.09;99439.06;5038624;28;20239;-91
2021/09/27 03:41:26;;;;;;;21.57;19.67;;;;;;;14.23;87.07;99431.81;5039177;28;20228;-91
2021/09/27 03:44:01;;;;;;;21.83;19.83;;;;;;;14.18;87.29;99435.25;5021628;28;20238;-91
2021/09/27 03:46:37;;;;;;;21.80;19.87;;;;;;;14.22;86.94;99435.56;5015529;28;20618;-87
2021/09/27 03:49:13;;;;;;;21.10;19.10;;;;;;;14.19;86.91;99433.34;4995715;28;20221;-88
2021/09/27 03:51:53;;;;;;;22.37;20.17;;;;;;;14.24;87.08;99428.84;4986571;28;20235;-90
2021/09/27 03:54:31;;;;;;;21.20;19.30;;;;;;;14.23;86.54;99429.13;5012027;28;20300;-91
2021/09/27 03:57:04;;;;;;;20.83;18.83;;;;;;;14.26;86.54;99431.31;4993858;28;20304;-91
2021/09/27 03:59:37;;;;;;;21.17;19.27;;;;;;;14.29;86.79;99438.88;4994751;28;20283;-89
2021/09/27 04:02:19;;;;;;;21.63;19.77;;;;;;;14.30;86.89;99435.94;5003543;28;20258;-90
2021/09/27 04:05:14;;;;;;;21.57;19.67;;;;;;;14.33;86.86;99445.41;4985404;28;20229;-90
2021/09/27 04:08:02;;;;;;;21.97;19.80;;;;;;;14.47;86.53;99450.22;5002061;28;20230;-87
2021/09/27 04:10:37;;;;;;;22.97;20.77;;;;;;;14.43;86.88;99449.09;5021702;28;20233;-87
2021/09/27 04:13:34;;;;;;;23.27;21.07;;;;;;;14.43;86.91;99454.47;5012568;28;20225;-92
2021/09/27 04:16:26;;;;;;;24.10;21.90;;;;;;;14.47;87.13;99462.88;5010389;28;20263;-92
2021/09/27 04:19:25;;;;;;;23.43;21.13;;;;;;;14.46;87.22;99461.28;5026336;28;20308;-94
2021/09/27 04:22:03;;;;;;;24.10;21.77;;;;;;;14.48;87.60;99470.72;5012347;28;20230;-96
2021/09/27 04:25:05;;;;;;;24.77;22.53;;;;;;;14.50;87.73;99470.47;5030717;28;20239;-95
2021/09/27 04:27:56;;;;;;;26.03;23.47;;;;;;;14.50;88.20;99470.47;5012244;28;20230;-95
2021/09/27 04:30:47;;;;;;;26.67;24.17;;;;;;;14.45;88.18;99465.03;4992966;28;20569;-91
2021/09/27 04:33:53;;;;;;;26.83;24.23;;;;;;;14.42;88.48;99473.59;5004767;28;20233;-93
2021/09/27 04:36:23;;;;;;;27.73;25.03;;;;;;;14.51;88.57;99472.13;5030693;28;20224;-96
2021/09/27 04:38:52;;;;;;;27.33;24.60;;;;;;;14.52;88.71;99479.94;5012710;28;20307;-94
2021/09/27 04:41:54;;;;;;;27.97;25.37;;;;;;;14.54;89.04;99474.31;5004615;28;20290;-92
2021/09/27 04:44:47;;;;;;;27.03;24.43;;;;;;;14.52;89.10;99471.84;5037978;28;20259;-94
2021/09/27 04:47:33;;;;;;;26.73;24.13;;;;;;;14.60;89.41;99478.72;5020678;28;20263;-95
2021/09/27 04:50:17;;;;;;;28.37;25.50;;;;;;;14.60;89.24;99481.41;5037902;28;20231;-93
2021/09/27 04:53:08;;;;;;;28.30;25.70;;;;;;;14.63;89.80;99480.09;5037683;28;20222;-91
2021/09/27 04:55:54;;;;;;;28.33;25.43;;;;;;;14.66;89.56;99476.88;5020833;28;20245;-88
2021/09/27 04:58:52;;;;;;;28.97;26.17;;;;;;;14.66;89.93;99472.31;5019381;28;20299;-88
2021/09/27 05:01:57;;;;;;;28.53;25.63;;;;;;;14.72;90.14;99474.00;5003720;28;20237;-89
2021/09/27 05:04:33;;;;;;;27.70;25.10;;;;;;;14.75;90.06;99480.78;5033280;28;20614;-84
2021/09/27 05:07:25;;;;;;;30.40;27.40;;;;;;;14.80;90.04;99488.94;5034484;28;20308;-92
2021/09/27 05:10:01;;;;;;;33.77;30.27;;;;;;;14.86;90.18;99480.66;5026782;28;20218;-95
2021/09/27 05:12:45;;;;;;;34.80;31.37;;;;;;;14.91;89.51;99469.94;5036708;28;20236;-90
2021/09/27 05:15:33;;;;;;;33.37;30.07;;;;;;;14.97;89.69;99477.03;4986755;28;20593;-91
2021/09/27 05:18:23;;;;;;;32.70;29.40;;;;;;;15.00;89.80;99478.41;5003172;28;20234;-84
2021/09/27 05:21:20;;;;;;;31.93;28.87;;;;;;;15.03;89.81;99485.16;5036289;28;20272;-93
2021/09/27 05:23:53;;;;;;;32.10;28.80;;;;;;;15.03;89.52;99477.88;5018571;28;20260;-89
2021/09/27 05:26:46;;;;;;;33.17;30.00;;;;;;;15.08;89.95;99479.84;5036073;28;20234;-85
2021/09/27 05:29:31;;;;;;;32.83;29.60;;;;;;;15.15;89.63;99483.97;4983281;28;20234;-85
2021/09/27 05:32:18;;;;;;;35.80;32.23;;;;;;;15.19;89.69;99478.88;5018869;28;20288;-84
2021/09/27 05:34:51;;;;;;;36.70;33.00;;;;;;;15.26;89.67;99490.28;5036036;28;20232;-88
2021/09/27 05:37:48;;;;;;;36.53;32.93;;;;;;;15.29;89.33;99487.91;5018900;28;20638;-89
2021/09/27 05:40:45;;;;;;;35.07;31.37;;;;;;;15.35;89.50;99481.50;5035996;28;20312;-94
2021/09/27 05:43:28;;;;;;;34.23;30.77;;;;;;;15.46;88.87;99484.28;5002943;28;20233;-88
2021/09/27 05:46:21;;;;;;;34.20;30.57;;;;;;;15.54;88.60;99481.97;5002119;28;20566;-92
2021/09/27 05:49:03;;;;;;;32.27;29.03;;;;;;;15.55;88.06;99480.91;5002411;28;20245;-89
2021/09/27 05:51:40;;;;;;;31.33;28.33;;;;;;;15.65;87.75;99488.31;5002475;28;20232;-92
2021/09/27 05:54:15;;;;;;;30.63;27.73;;;;;;;15.61;87.77;99488.00;5002065;28;20237;-93
2021/09/27 05:56:46;;;;;;;30.77;27.87;;;;;;;15.68;87.99;99493.19;5018569;28;20235;-91
2021/09/27 05:59:47;;;;;;;30.17;27.37;;;;;;;15.70;87.79;99491.06;5002287;28;20605;-80
2021/09/27 06:02:36;;;;;;;31.13;28.00;;;;;;;15.75;87.19;99491.91;5035137;28;20234;-91
2021/09/27 06:05:09;;;;;;;30.33;27.37;;;;;;;15.82;87.19;99495.22;5035658;28;20229;-88
2021/09/27 06:07:55;;;;;;;31.10;28.20;;;;;;;15.92;86.97;99493.66;5002051;28;20230;-88
2021/09/27 06:10:35;;;;;;;30.77;27.73;;;;;;;15.99;87.09;99497.81;5007982;28;20232;-85
2021/09/27 06:13:17;;;;;;;29.10;26.30;;;;;;;16.09;86.65;99500.59;5002423;28;20226;-91
2021/09/27 06:15:59;;;;;;;29.67;26.97;;;;;;;16.10;86.35;99493.28;5018237;28;20280;-87
2021/09/27 06:18:45;;;;;;;29.07;26.37;;;;;;;16.06;86.09;99495.69;5018076;28;20313;-91
2021/09/27 06:21:41;;;;;;;45.77;29.43;;;;;;;16.08;86.09;99492.72;5002081;28;20233;-90
2021/09/27 06:24:18;;;;;;;29.37;26.60;;;;;;;16.07;86.07;99497.31;4988491;28;20230;-90
2021/09/27 06:26:56;;;;;;;28.93;26.07;;;;;;;16.13;85.69;99495.47;5018103;28;20253;-89
2021/09/27 06:29:35;;;;;;;27.97;25.47;;;;;;;16.09;85.42;99491.66;5001654;28;20637;-90
2021/09/27 06:32:12;;;;;;;28.77;26.00;;;;;;;16.14;85.67;99491.69;4984881;28;20357;-86
2021/09/27 06:34:42;;;;;;;28.67;25.77;;;;;;;16.14;85.34;99494.41;5001695;28;20226;-94
2021/09/27 06:37:10;;;;;;;29.10;26.37;;;;;;;16.03;85.10;99490.81;5017713;28;20238;-95
2021/09/27 06:39:36;;;;;;;27.43;25.03;;;;;;;16.12;85.69;99489.25;5017784;28;20226;-83
2021/09/27 06:42:03;;;;;;;28.37;25.70;;;;;;;16.16;85.44;99482.25;5001721;28;20265;-84
2021/09/27 06:44:30;;;;;;;28.10;25.37;;;;;;;16.30;84.70;99488.03;5017949;28;20242;-90
2021/09/27 06:46:57;;;;;;;27.73;25.10;;;;;;;16.44;84.91;99496.50;5001590;28;20652;-94
2021/09/27 06:49:24;;;;;;;27.87;25.27;;;;;;;16.53;84.86;99495.75;5001755;28;20230;-91
2021/09/27 06:51:54;;;;;;;27.47;25.17;;;;;;;16.64;84.17;99497.47;5018282;28;20241;-89
2021/09/27 06:54:21;;;;;;;28.87;26.17;;;;;;;16.68;84.21;99500.47;5016943;28;20314;-89
2021/09/27 06:56:48;;;;;;;27.87;25.17;;;;;;;16.91;83.48;99502.75;5035086;28;20226;-90
2021/09/27 06:59:17;;;;;;;28.27;25.67;;;;;;;16.99;82.84;99502.22;5017576;28;20256;-93
2021/09/27 07:01:45;;;;;;;29.30;26.70;;;;;;;17.05;82.06;99501.19;5017445;28;20630;-88
2021/09/27 07:04:12;;;;;;;27.57;25.07;;;;;;;17.14;82.29;99507.72;5001220;28;20256;-88
2021/09/27 07:06:39;;;;;;;28.23;25.83;;;;;;;17.28;81.89;99518.03;5001657;28;20535;-82
2021/09/27 07:09:08;;;;;;;28.90;25.97;;;;;;;17.36;81.26;99495.84;5017993;28;20634;-85
2021/09/27 07:11:37;;;;;;;27.90;25.33;;;;;;;17.40;81.05;99491.56;5017397;28;20526;-89
2021/09/27 07:14:04;;;;;;;26.83;24.43;;;;;;;17.54;80.90;99517.81;5017200;28;20226;-82
2021/09/27 07:16:30;;;;;;;26.87;24.37;;;;;;;17.56;80.73;99504.84;5017418;28;20232;-91
2021/09/27 07:19:05;;;;;;;28.10;25.67;;;;;;;17.60;80.52;99508.66;4986591;28;20230;-82
2021/09/27 07:21:33;;;;;;;26.27;23.93;;;;;;;17.59;80.24;99515.16;5034601;28;20368;-89
2021/09/27 07:24:00;;;;;;;28.70;26.00;;;;;;;17.50;79.97;99505.09;5001246;28;20232;-82
2021/09/27 07:26:27;;;;;;;27.60;25.20;;;;;;;17.48;80.60;99510.78;5017580;28;20225;-86
2021/09/27 07:28:59;;;;;;;27.97;25.40;;;;;;;17.43;81.23;99507.25;5034811;28;20272;-90
2021/09/27 07:31:28;;;;;;;29.13;26.53;;;;;;;17.46;80.27;99509.41;5001256;28;20234;-90
2021/09/27 07:33:55;;;;;;;27.00;24.70;;;;;;;17.37;80.74;99500.19;5001656;28;20226;-91
2021/09/27 07:36:22;;;;;;;27.07;24.47;;;;;;;17.41;81.26;99512.13;5016539;28;20232;-84
2021/09/27 07:38:49;;;;;;;28.37;25.77;;;;;;;17.37;81.88;99505.59;5017404;28;20309;-89
2021/09/27 07:41:17;;;;;;;25.13;22.73;;;;;;;17.44;81.30;99511.59;5000925;28;20234;-95
2021/09/27 07:43:45;;;;;;;22.97;20.80;;;;;;;17.54;80.43;99514.34;5001285;28;20226;-84
2021/09/27 07:46:15;;;;;;;22.80;20.67;;;;;;;17.32;80.87;99501.00;5000700;28;20262;-91
2021/09/27 07:48:42;;;;;;;20.37;18.57;;;;;;;17.42;81.06;99509.16;5021162;28;20570;-89
2021/09/27 07:51:09;;;;;;;20.97;19.10;;;;;;;17.50;81.40;99519.44;5020940;28;20349;-85
2021/09/27 07:53:35;;;;;;;18.10;16.50;;;;;;;17.51;81.24;99510.25;5004962;28;20277;-85
2021/09/27 07:56:02;;;;;;;16.67;15.27;;;;;;;17.64;81.31;99522.50;5020062;28;20242;-87
2021/09/27 07:58:29;;;;;;;14.07;12.80;;;;;;;17.78;80.55;99511.94;5004672;28;20229;-92
2021/09/27 08:00:56;;;;;;;9.77;8.97;;;;;;;17.83;79.95;99511.94;4988080;28;20499;-89
2021/09/27 08:03:23;;;;;;;8.47;7.67;;;;;;;17.93;78.11;99510.06;5004290;28;20531;-93
2021/09/27 08:05:50;;;;;;;8.77;7.90;;;;;;;18.23;78.36;99528.25;5020732;28;20317;-91
2021/09/27 08:08:17;;;;;;;6.77;6.17;;;;;;;18.40;77.61;99525.25;5020358;28;20234;-92
2021/09/27 08:10:45;;;;;;;6.83;6.30;;;;;;;18.60;76.92;99519.81;5020800;28;20258;-84
2021/09/27 08:13:12;;;;;;;3.77;3.47;;;;;;;18.86;74.55;99515.94;5004406;28;20253;-87
2021/09/27 08:15:42;;;;;;;2.50;2.30;;;;;;;19.05;73.14;99518.88;5020769;28;20561;-89
2021/09/27 08:18:11;;;;;;;2.20;2.00;;;;;;;19.13;71.73;99507.41;5003605;28;20226;-91
2021/09/27 08:20:45;;;;;;;1.80;1.70;;;;;;;19.29;70.86;99516.31;5004208;28;20236;-89
2021/09/27 08:23:12;;;;;;;0.90;0.90;;;;;;;19.33;69.25;99520.91;5020541;28;20304;-93
2021/09/27 08:25:40;;;;;;;2.30;0.90;;;;;;;19.52;69.39;99523.00;5003762;28;20238;-90
2021/09/27 08:28:08;;;;;;;1.10;1.00;;;;;;;19.72;69.32;99523.72;5003743;28;20234;-93
2021/09/27 08:30:45;;;;;;;1.63;0.90;;;;;;;19.93;68.95;99521.66;5019968;28;20641;-90
2021/09/27 08:33:13;;;;;;;0.87;0.87;;;;;;;19.98;67.86;99520.81;5013301;28;20231;-88
2021/09/27 08:35:40;;;;;;;1.87;1.10;;;;;;;20.02;68.08;99513.69;5016568;28;20333;-86
2021/09/27 08:38:09;;;;;;;0.83;0.83;;;;;;;20.11;67.73;99509.31;5019120;28;20219;-88
2021/09/27 08:41:02;;;;;;;0.70;0.70;;;;;;;20.11;68.09;99520.97;5003424;28;20240;-93
2021/09/27 08:43:28;;;;;;;0.87;0.67;;;;;;;20.13;67.78;99523.41;5036874;28;20228;-91
2021/09/27 08:46:00;;;;;;;0.77;0.60;;;;;;;20.03;67.79;99518.03;5019330;28;20664;-91
2021/09/27 08:48:36;;;;;;;0.60;0.60;;;;;;;19.88;67.00;99531.75;5003245;28;20228;-92
2021/09/27 08:51:03;;;;;;;0.50;0.50;;;;;;;19.87;66.64;99508.41;4992931;28;20263;-91
2021/09/27 08:53:36;;;;;;;0.60;0.60;;;;;;;19.92;67.08;99517.34;5003719;28;20231;-92
2021/09/27 08:56:12;;;;;;;1.03;0.80;;;;;;;19.92;67.16;99522.78;5002833;28;20234;-87
2021/09/27 08:58:57;;;;;;;0.80;0.80;;;;;;;19.76;67.49;99529.41;5003259;28;20231;-93
2021/09/27 09:01:52;;;;;;;0.80;0.80;;;;;;;19.73;67.55;99519.91;5019280;28;20247;-90
2021/09/27 09:04:40;;;;;;;0.93;0.90;;;;;;;19.68;68.60;99527.28;4961835;28;20231;-91
2021/09/27 09:07:10;;;;;;;0.90;0.90;;;;;;;19.77;68.11;99525.59;5002973;28;20228;-89
2021/09/27 09:09:41;;;;;;;1.77;1.00;;;;;;;20.04;67.73;99525.13;5002868;28;20235;-92
2021/09/27 09:12:20;;;;;;;1.30;1.20;;;;;;;19.61;67.62;99508.56;5003102;28;20498;-91
2021/09/27 09:15:26;;;;;;;1.40;1.30;;;;;;;19.76;66.99;99519.34;5036676;28;20224;-91
2021/09/27 09:18:26;;;;;;;1.37;1.20;;;;;;;19.78;67.28;99527.22;5001393;28;20284;-91
2021/09/27 09:21:02;;;;;;;1.40;1.30;;;;;;;19.83;66.74;99529.09;4990444;28;20281;-88
2021/09/27 09:23:36;;;;;;;1.43;1.20;;;;;;;19.72;67.57;99514.75;5019462;28;20227;-93
2021/09/27 09:26:10;;;;;;;2.37;1.70;;;;;;;19.84;67.94;99531.50;5018322;28;20231;-92
2021/09/27 09:28:38;;;;;;;1.50;1.40;;;;;;;19.78;66.74;99525.28;5036231;28;20232;-86
2021/09/27 09:31:34;;;;;;;1.63;1.53;;;;;;;19.90;66.46;99519.50;4986528;28;20281;-90
2021/09/27 09:34:02;;;;;;;3.23;2.07;;;;;;;19.87;67.24;99522.81;5001354;28;20240;-84
2021/09/27 09:36:32;;;;;;;2.00;1.90;;;;;;;19.99;67.23;99530.59;5019010;28;20310;-92
2021/09/27 09:39:02;;;;;;;1.70;1.60;;;;;;;20.02;66.92;99535.44;5002579;28;20276;-92
2021/09/27 09:41:50;;;;;;;2.20;2.00;;;;;;;20.08;66.50;99521.53;5002882;28;20227;-90
2021/09/27 09:44:24;;;;;;;2.23;2.10;;;;;;;20.08;66.15;99528.88;5018381;28;20232;-87
2021/09/27 09:47:11;;;;;;;2.10;1.90;;;;;;;20.15;66.11;99524.75;5036407;28;20233;-88
2021/09/27 09:49:59;;;;;;;2.10;2.00;;;;;;;20.15;66.24;99530.22;4986612;28;20233;-91
2021/09/27 09:52:47;;;;;;;3.30;2.13;;;;;;;20.18;66.34;99531.53;5035810;28;20227;-89
2021/09/27 09:55:31;;;;;;;2.40;2.13;;;;;;;20.27;66.09;99529.00;5034713;28;20237;-89
2021/09/27 09:58:30;;;;;;;3.00;2.70;;;;;;;20.30;65.43;99536.59;5018807;28;20229;-93
2021/09/27 10:01:11;;;;;;;2.17;2.07;;;;;;;20.44;65.47;99538.41;4996990;28;20240;-90
2021/09/27 10:03:42;;;;;;;2.50;2.30;;;;;;;20.48;65.44;99534.00;5018559;28;20232;-88
2021/09/27 10:06:16;;;;;;;2.40;2.20;;;;;;;20.68;64.19;99541.16;5001542;28;20237;-91
2021/09/27 10:08:54;;;;;;;2.80;2.50;;;;;;;20.73;64.55;99532.94;5017494;28;20262;-83
2021/09/27 10:11:31;;;;;;;2.20;2.10;;;;;;;20.80;63.75;99536.16;5032201;28;20640;-92
2021/09/27 10:13:58;;;;;;;2.80;2.60;;;;;;;20.97;63.53;99530.22;5001636;28;20255;-91
2021/09/27 10:16:28;;;;;;;2.40;2.20;;;;;;;21.12;63.22;99538.22;4985259;28;20234;-84
2021/09/27 10:19:14;;;;;;;2.73;2.30;;;;;;;21.36;62.51;99530.06;5035461;28;20234;-89
2021/09/27 10:21:51;;;;;;;2.47;2.20;;;;;;;21.55;62.64;99535.53;5035099;28;20237;-86
2021/09/27 10:24:45;;;;;;;2.60;2.40;;;;;;;21.74;62.28;99528.97;4999210;28;20227;-89
2021/09/27 10:27:30;;;;;;;3.00;2.80;;;;;;;21.68;62.49;99534.81;5017108;28;20255;-91
2021/09/27 10:30:02;;;;;;;2.70;2.50;;;;;;;21.62;62.23;99534.06;5001088;28;20229;-90
2021/09/27 10:32:54;;;;;;;2.77;2.50;;;;;;;21.65;62.52;99536.19;5017157;28;20258;-87
2021/09/27 10:35:40;;;;;;;3.30;3.00;;;;;;;21.41;63.87;99535.44;5017833;28;20232;-86
2021/09/27 10:38:11;;;;;;;3.30;3.10;;;;;;;21.21;64.53;99524.81;5001813;28;20230;-91
2021/09/27 10:40:42;;;;;;;3.00;2.80;;;;;;;21.00;65.78;99532.38;5035251;28;20234;-91
2021/09/27 10:43:17;;;;;;;3.90;3.07;;;;;;;20.89;66.24;99539.88;5034219;28;20358;-91
2021/09/27 10:45:52;;;;;;;3.30;3.10;;;;;;;20.74;66.04;99526.41;5001915;28;20231;-87
2021/09/27 10:48:20;;;;;;;3.47;3.20;;;;;;;20.70;66.58;99532.72;5017287;28;20283;-88
2021/09/27 10:50:56;;;;;;;3.07;2.77;;;;;;;20.67;66.93;99536.03;5017668;28;20235;-90
2021/09/27 10:53:33;;;;;;;3.57;3.27;;;;;;;20.52;67.45;99534.25;5018158;28;20227;-90
2021/09/27 10:56:42;;;;;;;3.17;2.90;;;;;;;20.47;67.40;99534.31;5034021;28;20234;-90
2021/09/27 10:59:14;;;;;;;3.10;2.90;;;;;;;20.25;66.86;99520.34;5007610;28;20239;-85
2021/09/27 11:01:42;;;;;;;2.87;2.67;;;;;;;20.25;66.86;99537.44;5033760;28;20241;-89
2021/09/27 11:04:14;;;;;;;2.90;2.70;;;;;;;20.18;67.79;99531.53;5001398;28;20232;-88
2021/09/27 11:06:54;;;;;;;2.73;2.53;;;;;;;20.18;66.69;99529.63;5017754;28;20227;-86
2021/09/27 11:09:26;;;;;;;3.17;2.97;;;;;;;20.24;67.34;99538.56;5001922;28;20228;-93
2021/09/27 11:12:01;;;;;;;2.60;2.40;;;;;;;20.39;67.43;99533.00;5034659;28;20314;-87
2021/09/27 11:14:42;;;;;;;3.13;2.93;;;;;;;20.45;67.15;99531.88;5017535;28;20234;-91
2021/09/27 11:17:17;;;;;;;2.93;2.70;;;;;;;20.44;66.96;99532.13;5017772;28;20573;-94
2021/09/27 11:19:44;;;;;;;2.73;2.53;;;;;;;20.27;66.15;99516.22;5001365;28;20537;-89
2021/09/27 11:22:14;;;;;;;2.53;2.37;;;;;;;20.39;65.93;99524.06;5018051;28;20635;-89
2021/09/27 11:24:43;;;;;;;2.40;2.20;;;;;;;20.29;67.37;99524.09;5038705;28;20226;-93
2021/09/27 11:27:16;;;;;;;2.50;2.30;;;;;;;20.35;66.83;99525.69;5021154;28;20266;-87
2021/09/27 11:30:00;;;;;;;2.30;2.20;;;;;;;20.27;66.49;99520.84;5021295;28;20582;-87
2021/09/27 11:32:51;;;;;;;2.70;2.50;;;;;;;20.34;66.63;99516.75;5020870;28;20229;-88
2021/09/27 11:35:43;;;;;;;3.47;2.40;;;;;;;20.39;67.58;99521.31;5037609;28;20241;-94
2021/09/27 11:38:26;;;;;;;2.63;2.43;;;;;;;20.26;67.88;99517.31;5020880;28;20533;-91
2021/09/27 11:41:02;;;;;;;2.83;2.63;;;;;;;20.13;67.68;99510.63;5020908;28;20242;-85
2021/09/27 11:44:07;;;;;;;2.73;2.53;;;;;;;20.35;67.45;99510.19;5020854;28;20263;-93
2021/09/27 11:46:38;;;;;;;2.70;2.50;;;;;;;20.14;66.59;99517.69;5038164;28;20278;-89
2021/09/27 11:49:20;;;;;;;2.80;2.60;;;;;;;20.17;66.57;99513.59;5020926;28;20231;-86
2021/09/27 11:52:29;;;;;;;3.33;3.10;;;;;;;20.16;66.93;99515.50;5038352;28;20258;-86
2021/09/27 11:55:08;;;;;;;3.27;3.07;;;;;;;20.14;66.81;99512.25;5037166;28;20237;-85
2021/09/27 11:57:53;;;;;;;3.07;2.80;;;;;;;20.15;67.15;99515.78;5037493;28;20259;-87
2021/09/27 12:00:26;;;;;;;2.90;2.70;;;;;;;20.18;66.37;99517.94;5003880;28;20298;-92
2021/09/27 12:03:08;;;;;;;3.10;2.80;;;;;;;20.09;66.16;99515.00;5037135;28;20235;-90
2021/09/27 12:05:52;;;;;;;3.30;2.67;;;;;;;19.98;66.98;99499.88;5020718;28;20234;-89
2021/09/27 12:08:30;;;;;;;2.93;2.73;;;;;;;19.98;66.86;99513.47;5036562;28;20234;-87
2021/09/27 12:11:05;;;;;;;3.17;2.93;;;;;;;20.07;67.09;99511.75;5004298;28;20233;-85
2021/09/27 12:13:39;;;;;;;2.90;2.70;;;;;;;20.13;66.69;99518.78;5004311;28;20247;-91
2021/09/27 12:16:13;;;;;;;3.30;3.00;;;;;;;20.20;67.08;99513.03;5020565;28;20240;-88
2021/09/27 12:18:46;;;;;;;3.03;2.77;;;;;;;20.04;66.01;99511.53;5020405;28;20237;-90
2021/09/27 12:21:19;;;;;;;2.87;2.67;;;;;;;20.29;66.06;99510.50;5020527;28;20664;-88
2021/09/27 12:24:07;;;;;;;3.27;2.97;;;;;;;20.34;65.68;99505.03;5015943;28;20225;-86
2021/09/27 12:26:40;;;;;;;2.90;2.70;;;;;;;20.48;65.16;99506.00;5017655;28;20249;-90
2021/09/27 12:29:14;;;;;;;2.80;2.60;;;;;;;20.51;64.25;99495.34;5000908;28;20260;-83
2021/09/27 12:31:53;;;;;;;2.83;2.63;;;;;;;20.55;64.84;99515.44;5000847;28;20622;-85